Decoded Metar for LFSO (NANCY OCHEY in FRANCE) (IATA:N/A) | Meteo·Mobile Aviation Weather
aviador You're here:

LFSO Decoded Metar

NANCY OCHEY in FRANCE
Report Time2019-07-19 18:30:00
UTC Time2019-07-19 18:38:14
Flight Rules vfr VFR
WindVRB at 03 kt
Visibility9999 m
Phenomena:N/A
Clouds:N/A
Expected CloudBase > 5,200 ft AGL from Temp-Dew spread
CeilingNone
Temp25°C (ISA +12)
Dew Point12°C (44% RH)
AAT24.5°C
QNH1015 hPa
Density Alt2,690 ft
Elevation1,148 ft
Report Wrong Elevation
Raw Report
METAR LFSO 191830Z AUTO VRB03KT CAVOK 25/12 Q1015 NOSIG=

Extra information for LFSO:More info

Metar Taf Metar & Taf Last 4 Metars F.Rules Stats Wind Profile Meteogram Temp Stats Airport Information Weather charts Add Link Nearby VenuesMetar ALERT Operation Metar Decoded Social comments